Time;durP1;ratioP1;P1;durP2;ratioP2;P2;SDS_P1;SDS_P2;PMS_P1;PMS_P2;Temp;Humidity;BMP_temperature;BMP_pressure;BME280_temperature;BME280_humidity;BME280_pressure;Samples;Min_cycle;Max_cycle;Signal;HPM_P1;HPM_P2
2020/12/11 00:01:11;;;;;;;23.90;13.45;;;1.70;98.10;;;;;;6159278;23;20418;-87
2020/12/11 00:03:38;;;;;;;20.40;12.63;;;1.70;98.40;;;;;;6133169;23;20017;-86
2020/12/11 00:06:07;;;;;;;19.52;11.98;;;1.70;98.60;;;;;;6134557;23;20016;-86
2020/12/11 00:08:37;;;;;;;17.92;11.40;;;1.70;98.60;;;;;;6133338;23;20028;-86
2020/12/11 00:11:05;;;;;;;26.55;16.73;;;1.70;98.80;;;;;;6182574;23;19998;-83
2020/12/11 00:13:59;;;;;;;21.77;13.57;;;1.70;98.50;;;;;;6110529;23;20014;-86
2020/12/11 00:16:37;;;;;;;21.08;12.75;;;1.70;98.60;;;;;;6118618;23;20088;-86
2020/12/11 00:19:09;;;;;;;19.63;11.60;;;1.70;98.80;;;;;;6133040;23;20036;-87
2020/12/11 00:21:42;;;;;;;;;;;1.70;98.90;;;;;;6130533;23;20006;-87
2020/12/11 00:24:23;;;;;;;20.98;11.85;;;1.70;98.80;;;;;;6159697;23;19920;-86
2020/12/11 00:26:50;;;;;;;19.42;11.25;;;1.70;98.80;;;;;;6164242;23;20006;-87
2020/12/11 00:29:15;;;;;;;18.85;11.25;;;1.70;98.90;;;;;;6159945;23;20083;-87
2020/12/11 00:31:46;;;;;;;15.45;9.15;;;1.70;98.90;;;;;;6172157;23;20001;-86
2020/12/11 00:34:14;;;;;;;16.15;9.85;;;1.70;98.90;;;;;;6179805;23;20001;-85
2020/12/11 00:36:40;;;;;;;21.05;12.48;;;1.80;98.80;;;;;;6150811;23;20048;-86
2020/12/11 00:39:06;;;;;;;21.67;12.77;;;1.80;98.80;;;;;;6176438;23;19997;-85
2020/12/11 00:41:34;;;;;;;20.95;11.85;;;1.80;98.80;;;;;;6150811;23;20056;-86
2020/12/11 00:44:00;;;;;;;15.45;9.70;;;1.70;98.70;;;;;;6149888;23;20005;-84
2020/12/11 00:46:26;;;;;;;23.40;14.50;;;1.80;98.80;;;;;;6153130;23;20082;-83
2020/12/11 00:48:55;;;;;;;23.02;13.88;;;1.80;98.40;;;;;;6179696;23;19989;-84
2020/12/11 00:51:25;;;;;;;24.77;14.60;;;1.70;98.60;;;;;;6153238;23;20001;-85
2020/12/11 00:53:53;;;;;;;25.38;14.15;;;1.70;98.40;;;;;;6153326;23;20040;-83
2020/12/11 00:56:19;;;;;;;21.38;12.23;;;1.70;98.40;;;;;;6182298;23;20013;-83
2020/12/11 00:58:45;;;;;;;20.08;12.23;;;1.70;98.60;;;;;;6147489;23;20033;-86
2020/12/11 01:01:13;;;;;;;20.90;11.32;;;1.70;98.70;;;;;;6178844;23;19993;-83
2020/12/11 01:03:41;;;;;;;21.85;11.38;;;1.70;98.80;;;;;;6156684;23;20009;-83
2020/12/11 01:06:07;;;;;;;17.38;10.38;;;1.80;99.00;;;;;;6181905;23;19993;-82
2020/12/11 01:08:33;;;;;;;21.55;11.98;;;1.80;98.90;;;;;;6182137;23;20064;-83
2020/12/11 01:10:59;;;;;;;15.95;9.63;;;1.80;98.90;;;;;;6179816;23;20004;-84
2020/12/11 01:13:28;;;;;;;17.80;10.75;;;1.80;99.00;;;;;;6153717;23;20098;-85
2020/12/11 01:15:54;;;;;;;16.08;9.57;;;1.80;99.00;;;;;;6179993;23;19996;-84
2020/12/11 01:18:20;;;;;;;21.40;13.27;;;1.80;98.90;;;;;;6153836;23;20010;-84
2020/12/11 01:20:45;;;;;;;23.27;14.27;;;1.80;98.40;;;;;;6153290;23;20009;-84
2020/12/11 01:23:11;;;;;;;23.75;14.65;;;1.80;98.40;;;;;;6153245;23;20016;-86
2020/12/11 01:25:37;;;;;;;19.48;12.35;;;1.80;98.30;;;;;;6179947;23;20016;-83
2020/12/11 01:28:06;;;;;;;19.13;11.63;;;1.80;98.10;;;;;;6179216;23;20006;-83
2020/12/11 01:30:32;;;;;;;18.25;11.43;;;1.80;97.50;;;;;;6153262;23;20013;-85
2020/12/11 01:32:58;;;;;;;17.48;9.98;;;1.80;97.50;;;;;;6151921;23;20093;-84
2020/12/11 01:35:23;;;;;;;17.45;10.13;;;1.80;97.60;;;;;;6177420;23;20006;-84
2020/12/11 01:37:49;;;;;;;16.20;10.15;;;1.80;97.00;;;;;;6152297;23;20028;-83
2020/12/11 01:40:21;;;;;;;15.68;9.65;;;1.80;96.80;;;;;;6178733;23;20006;-86
2020/12/11 01:42:47;;;;;;;16.85;10.50;;;1.80;96.60;;;;;;6151139;23;20005;-85
2020/12/11 01:45:12;;;;;;;20.10;11.68;;;1.80;96.50;;;;;;6176461;23;20025;-86
2020/12/11 01:47:41;;;;;;;17.23;10.02;;;1.80;96.10;;;;;;6169191;23;20001;-85
2020/12/11 01:50:18;;;;;;;17.25;10.05;;;1.80;96.20;;;;;;6172117;23;20009;-85
2020/12/11 01:52:46;;;;;;;15.18;9.02;;;1.70;96.20;;;;;;6165889;23;20079;-85
2020/12/11 01:55:12;;;;;;;15.38;9.35;;;1.80;96.40;;;;;;6170147;23;20008;-84
2020/12/11 01:57:56;;;;;;;15.90;9.82;;;1.80;96.50;;;;;;6155413;23;20006;-83
2020/12/11 02:00:24;;;;;;;14.57;8.15;;;1.90;96.40;;;;;;6168139;23;20021;-86
2020/12/11 02:03:21;;;;;;;14.52;9.00;;;1.90;96.10;;;;;;6166927;23;20002;-85
2020/12/11 02:05:57;;;;;;;13.85;9.02;;;1.90;95.90;;;;;;6140721;23;20024;-86
2020/12/11 02:08:23;;;;;;;16.75;9.15;;;1.90;95.80;;;;;;6108858;23;20016;-86
2020/12/11 02:10:49;;;;;;;12.18;7.93;;;1.90;95.80;;;;;;6133553;23;20006;-85
2020/12/11 02:13:15;;;;;;;13.02;8.45;;;1.90;95.90;;;;;;6133939;23;20017;-86
2020/12/11 02:15:41;;;;;;;15.00;9.18;;;1.90;96.10;;;;;;6135219;23;20006;-85
2020/12/11 02:18:07;;;;;;;18.58;9.90;;;1.90;95.50;;;;;;6133888;23;20012;-84
2020/12/11 02:20:35;;;;;;;13.65;8.30;;;1.90;95.40;;;;;;6160425;23;20001;-85
2020/12/11 02:23:01;;;;;;;18.33;9.93;;;1.90;95.50;;;;;;6111804;23;20013;-86
2020/12/11 02:25:30;;;;;;;14.88;8.93;;;1.90;95.50;;;;;;6168070;23;20426;-85
2020/12/11 02:27:55;;;;;;;16.48;9.48;;;1.90;95.70;;;;;;6129748;23;20009;-86
2020/12/11 02:30:21;;;;;;;15.48;9.52;;;1.90;95.90;;;;;;6131893;23;20413;-85
2020/12/11 02:32:47;;;;;;;20.80;11.93;;;1.90;96.30;;;;;;6132876;23;20133;-84
2020/12/11 02:35:13;;;;;;;20.33;11.18;;;1.90;96.70;;;;;;6135431;23;20006;-85
2020/12/11 02:37:39;;;;;;;19.50;11.20;;;1.90;97.00;;;;;;6132774;23;20010;-85
2020/12/11 02:40:07;;;;;;;20.50;11.68;;;1.80;97.30;;;;;;6132046;23;20013;-85
2020/12/11 02:42:36;;;;;;;22.70;13.05;;;1.90;97.70;;;;;;6130700;23;20009;-86
2020/12/11 02:45:05;;;;;;;20.75;12.57;;;1.80;98.00;;;;;;6131073;23;20009;-85
2020/12/11 02:47:32;;;;;;;21.73;12.05;;;1.80;98.20;;;;;;6105845;23;20021;-84
2020/12/11 02:49:59;;;;;;;24.50;13.77;;;1.80;98.30;;;;;;6129962;23;20429;-85
2020/12/11 02:52:25;;;;;;;30.85;15.52;;;1.70;98.60;;;;;;6167548;23;19993;-85
2020/12/11 02:54:50;;;;;;;26.80;13.82;;;1.60;99.10;;;;;;6166340;23;20002;-86
2020/12/11 02:57:16;;;;;;;26.98;15.23;;;1.60;99.30;;;;;;6163362;23;20027;-85
2020/12/11 02:59:41;;;;;;;23.55;13.23;;;1.70;99.90;;;;;;6131141;23;20068;-86
2020/12/11 03:02:08;;;;;;;18.75;10.95;;;;;;;;;;6157210;23;20029;-86
2020/12/11 03:04:36;;;;;;;24.52;14.13;;;;;;;;;;6135515;23;20006;-85
2020/12/11 03:07:01;;;;;;;29.45;16.38;;;1.50;99.60;;;;;;6160283;23;20006;-86
2020/12/11 03:09:27;;;;;;;31.45;17.38;;;1.50;99.90;;;;;;6158740;23;19998;-86
2020/12/11 03:11:53;;;;;;;27.77;15.82;;;1.40;99.90;;;;;;6133310;23;20097;-85
2020/12/11 03:14:18;;;;;;;29.73;15.48;;;1.40;99.90;;;;;;6161785;23;20080;-86
2020/12/11 03:16:44;;;;;;;28.45;14.98;;;1.30;99.90;;;;;;6134136;23;20465;-86
2020/12/11 03:19:10;;;;;;;33.00;16.17;;;1.30;99.90;;;;;;6132377;23;20452;-85
2020/12/11 03:21:38;;;;;;;27.63;14.73;;;1.20;99.90;;;;;;6131479;23;20025;-87
2020/12/11 03:24:04;;;;;;;32.63;16.35;;;1.20;99.90;;;;;;6131995;23;20025;-86
2020/12/11 03:26:31;;;;;;;32.15;16.48;;;1.10;99.90;;;;;;6127916;23;20025;-87
2020/12/11 03:29:03;;;;;;;32.03;16.45;;;;;;;;;;6131516;23;20065;-87
2020/12/11 03:31:29;;;;;;;29.83;15.35;;;1.10;99.90;;;;;;6130451;23;20219;-87
2020/12/11 03:33:55;;;;;;;36.17;19.48;;;1.10;99.90;;;;;;6164381;23;20001;-84
2020/12/11 03:36:21;;;;;;;31.10;15.73;;;1.00;99.90;;;;;;6171711;23;19998;-84
2020/12/11 03:38:48;;;;;;;31.83;16.00;;;1.00;99.90;;;;;;6147134;23;20021;-85
2020/12/11 03:41:17;;;;;;;29.65;14.95;;;1.00;99.90;;;;;;6151900;23;20037;-84
2020/12/11 03:43:43;;;;;;;32.85;16.58;;;1.00;99.90;;;;;;6149788;23;20020;-85
2020/12/11 03:46:09;;;;;;;34.63;15.88;;;;;;;;;;6159873;23;20002;-85
2020/12/11 03:48:35;;;;;;;29.98;15.55;;;1.00;99.90;;;;;;6131543;23;20115;-86
2020/12/11 03:51:01;;;;;;;35.15;16.98;;;0.80;99.90;;;;;;6142785;23;20005;-85
2020/12/11 03:53:27;;;;;;;28.27;15.05;;;0.70;99.90;;;;;;6142218;23;20025;-85
2020/12/11 03:55:56;;;;;;;30.17;13.90;;;0.60;99.90;;;;;;6144410;23;19998;-85
2020/12/11 03:58:22;;;;;;;30.75;15.32;;;0.50;99.90;;;;;;6150045;23;20021;-84
2020/12/11 04:00:48;;;;;;;30.30;14.25;;;0.50;99.90;;;;;;6174770;23;20001;-84
2020/12/11 04:03:14;;;;;;;26.55;13.30;;;0.50;99.90;;;;;;6175001;23;20094;-84
2020/12/11 04:05:39;;;;;;;24.10;12.68;;;0.40;99.90;;;;;;6145462;23;20010;-85
2020/12/11 04:08:05;;;;;;;30.88;15.10;;;0.40;99.90;;;;;;6137906;23;20029;-84
2020/12/11 04:10:31;;;;;;;26.65;13.25;;;0.40;99.90;;;;;;6139173;23;20037;-85
2020/12/11 04:12:56;;;;;;;31.30;15.07;;;0.50;99.90;;;;;;6144358;23;20345;-83
2020/12/11 04:15:23;;;;;;;30.48;15.55;;;0.50;99.90;;;;;;6144459;23;20002;-86
2020/12/11 04:17:49;;;;;;;31.42;15.80;;;0.50;99.90;;;;;;6170195;23;20020;-84
2020/12/11 04:20:15;;;;;;;30.92;14.68;;;0.50;99.90;;;;;;6170128;23;20006;-85
2020/12/11 04:22:40;;;;;;;26.35;12.85;;;0.50;99.90;;;;;;6114605;23;20025;-85
2020/12/11 04:25:07;;;;;;;27.05;13.20;;;0.50;99.90;;;;;;6146181;23;20013;-84
2020/12/11 04:27:53;;;;;;;22.92;12.10;;;0.40;99.90;;;;;;6142506;23;20006;-85
2020/12/11 04:30:19;;;;;;;22.48;11.85;;;0.40;99.90;;;;;;6144682;23;20339;-84
2020/12/11 04:32:45;;;;;;;29.38;14.75;;;0.30;99.90;;;;;;6145334;23;20092;-84
2020/12/11 04:35:11;;;;;;;24.95;13.10;;;0.10;99.90;;;;;;6147330;23;20001;-84
2020/12/11 04:37:37;;;;;;;31.13;16.08;;;0.10;99.90;;;;;;6143743;23;20010;-84
2020/12/11 04:40:03;;;;;;;31.65;15.23;;;0.10;99.90;;;;;;6167556;23;20441;-84
2020/12/11 04:42:32;;;;;;;29.80;14.75;;;;;;;;;;6174777;23;20024;-85
2020/12/11 04:44:57;;;;;;;39.00;17.10;;;0.20;99.90;;;;;;6175405;23;20429;-85
2020/12/11 04:47:23;;;;;;;28.75;14.63;;;0.20;99.90;;;;;;6175834;23;20056;-83
2020/12/11 04:49:49;;;;;;;30.92;14.85;;;0.20;99.90;;;;;;6177584;23;20051;-84
2020/12/11 04:52:19;;;;;;;34.03;16.90;;;0.20;99.90;;;;;;6177378;23;20012;-84
2020/12/11 04:54:48;;;;;;;32.38;16.20;;;0.20;99.90;;;;;;6175104;23;19998;-84
2020/12/11 04:57:25;;;;;;;29.70;15.55;;;0.10;99.90;;;;;;6165903;23;20128;-86
2020/12/11 04:59:51;;;;;;;32.08;14.65;;;0.20;99.90;;;;;;6163737;23;20002;-86
2020/12/11 05:02:17;;;;;;;31.10;14.93;;;;;;;;;;6164824;23;20081;-83
2020/12/11 05:04:43;;;;;;;28.55;14.45;;;;;;;;;;6140027;23;20002;-85
2020/12/11 05:07:09;;;;;;;33.58;17.33;;;0.20;99.90;;;;;;6140252;23;20001;-84
2020/12/11 05:09:35;;;;;;;35.08;17.02;;;0.30;99.90;;;;;;6165884;23;20032;-84
2020/12/11 05:12:12;;;;;;;29.58;15.10;;;0.30;99.90;;;;;;6162788;23;20035;-86
2020/12/11 05:14:38;;;;;;;24.85;12.93;;;0.30;99.90;;;;;;6162095;23;20005;-86
2020/12/11 05:17:06;;;;;;;22.55;12.00;;;0.40;99.90;;;;;;6135037;23;20094;-86
2020/12/11 05:19:33;;;;;;;23.90;12.10;;;0.40;99.90;;;;;;6163615;23;20005;-84
2020/12/11 05:22:10;;;;;;;25.80;12.85;;;0.40;99.90;;;;;;6164156;23;20053;-83
2020/12/11 05:24:56;;;;;;;26.65;13.32;;;0.40;99.90;;;;;;6154565;23;19989;-85
2020/12/11 05:27:43;;;;;;;26.90;13.65;;;0.40;99.90;;;;;;6120180;23;20017;-85
2020/12/11 05:30:19;;;;;;;27.05;13.45;;;0.40;99.90;;;;;;6161597;23;20025;-86
2020/12/11 05:32:50;;;;;;;21.08;10.85;;;0.40;99.90;;;;;;6130850;23;20016;-84
2020/12/11 05:35:18;;;;;;;25.55;13.02;;;0.40;99.90;;;;;;6157650;23;20073;-85
2020/12/11 05:37:53;;;;;;;25.17;12.63;;;0.40;99.90;;;;;;6169995;23;20004;-85
2020/12/11 05:40:43;;;;;;;30.65;15.32;;;0.40;99.90;;;;;;6170746;23;20006;-85
2020/12/11 05:43:18;;;;;;;27.33;13.63;;;0.40;99.90;;;;;;6180286;23;20008;-85
2020/12/11 05:45:59;;;;;;;24.77;12.45;;;0.50;99.90;;;;;;6171571;23;20009;-86
2020/12/11 05:48:40;;;;;;;29.90;13.87;;;0.50;99.90;;;;;;6133669;23;20060;-87
2020/12/11 05:51:19;;;;;;;29.38;14.18;;;0.40;99.90;;;;;;6174845;23;20005;-87
2020/12/11 05:53:49;;;;;;;40.30;18.92;;;0.40;99.90;;;;;;6160058;23;20008;-86
2020/12/11 05:56:25;;;;;;;31.73;14.95;;;0.40;99.90;;;;;;6132036;23;19997;-87
2020/12/11 05:58:53;;;;;;;28.13;14.77;;;0.40;99.90;;;;;;6132663;23;20016;-86
2020/12/11 06:01:21;;;;;;;28.98;15.10;;;0.50;99.90;;;;;;6130490;23;20354;-86
2020/12/11 06:03:47;;;;;;;29.48;15.40;;;0.50;99.90;;;;;;6133928;23;20005;-86
2020/12/11 06:06:21;;;;;;;28.02;14.38;;;0.50;99.90;;;;;;6165697;23;20463;-87
2020/12/11 06:09:06;;;;;;;32.03;15.63;;;0.50;99.90;;;;;;6112323;23;20012;-87
2020/12/11 06:12:00;;;;;;;29.85;15.07;;;0.50;99.90;;;;;;6161126;23;20092;-86
2020/12/11 06:14:46;;;;;;;;;;;0.50;99.90;;;;;;6143643;23;20036;-86
2020/12/11 06:17:16;;;;;;;32.33;16.60;;;0.50;99.90;;;;;;6163016;23;20454;-85
2020/12/11 06:19:55;;;;;;;33.78;16.00;;;0.50;99.90;;;;;;6156717;23;20080;-84
2020/12/11 06:22:44;;;;;;;25.48;12.60;;;0.50;99.90;;;;;;6150212;23;20013;-85
2020/12/11 06:25:31;;;;;;;27.95;13.85;;;0.50;99.90;;;;;;6156959;23;20037;-85
2020/12/11 06:28:09;;;;;;;33.65;15.98;;;0.60;99.90;;;;;;6127893;23;20017;-85
2020/12/11 06:30:43;;;;;;;31.15;14.90;;;0.60;99.90;;;;;;6156221;23;19997;-86
2020/12/11 06:34:26;;;;;;;35.70;16.48;;;0.60;99.90;;;;;;6153977;23;20057;-86
2020/12/11 06:38:26;;;;;;;31.63;15.93;;;0.60;99.90;;;;;;5974004;23;20008;-85
2020/12/11 06:40:58;;;;;;;30.25;16.40;;;0.60;99.90;;;;;;5959564;24;20077;-86
2020/12/11 06:44:29;;;;;;;30.88;15.32;;;0.60;99.90;;;;;;5920485;24;20005;-87
2020/12/11 06:47:25;;;;;;;28.10;14.43;;;0.50;99.90;;;;;;5957780;23;20082;-87
2020/12/11 06:50:46;;;;;;;36.38;18.40;;;0.50;99.90;;;;;;6044715;23;20003;-86
2020/12/11 06:53:48;;;;;;;28.33;14.10;;;0.50;99.90;;;;;;6006502;23;20004;-87
2020/12/11 06:56:45;;;;;;;32.05;15.32;;;0.50;99.90;;;;;;6053679;23;20003;-86
2020/12/11 06:59:41;;;;;;;35.08;17.15;;;0.50;99.90;;;;;;6132608;23;20002;-86
2020/12/11 07:02:14;;;;;;;30.80;16.58;;;0.50;99.90;;;;;;6137695;23;20012;-86
2020/12/11 07:07:58;;;;;;;35.28;16.35;;;0.50;99.90;;;;;;6156797;23;20287;-85
2020/12/11 07:10:26;;;;;;;29.08;14.48;;;0.60;99.90;;;;;;6146903;23;20006;-85
2020/12/11 07:13:07;;;;;;;31.58;15.23;;;0.60;99.90;;;;;;6171350;23;20064;-87
2020/12/11 07:15:35;;;;;;;33.05;17.50;;;0.60;99.90;;;;;;6144629;23;20045;-86
2020/12/11 07:18:18;;;;;;;27.95;14.65;;;0.60;99.90;;;;;;6144502;23;20028;-86
2020/12/11 07:21:42;;;;;;;;;;;;;;;;;;;;;
2020/12/11 07:23:58;;;;;;;34.00;15.23;;;0.60;99.90;;;;;;6171063;23;20078;-85
2020/12/11 07:26:26;;;;;;;27.80;13.70;;;0.60;99.90;;;;;;6152171;23;20127;-85
2020/12/11 07:29:38;;;;;;;;;;;;;;;;;;;;;
2020/12/11 07:35:27;;;;;;;28.45;14.70;;;0.80;99.90;;;;;;6170048;23;20010;-86
2020/12/11 07:37:56;;;;;;;26.70;13.85;;;0.80;99.90;;;;;;6137050;23;20058;-87
2020/12/11 07:40:35;;;;;;;27.10;13.68;;;0.90;99.90;;;;;;6135334;23;20001;-87
2020/12/11 07:43:16;;;;;;;33.33;16.88;;;1.00;99.90;;;;;;6160189;23;20053;-87
2020/12/11 07:45:50;;;;;;;33.75;17.15;;;1.10;99.90;;;;;;6160060;23;20434;-87
2020/12/11 07:48:18;;;;;;;29.00;14.85;;;1.10;99.90;;;;;;6164907;23;20056;-86
2020/12/11 07:50:47;;;;;;;36.08;18.77;;;1.20;99.90;;;;;;6143376;23;20012;-86
2020/12/11 07:53:16;;;;;;;34.80;16.88;;;1.20;99.60;;;;;;6144234;23;20005;-86
2020/12/11 07:55:49;;;;;;;23.50;13.10;;;1.20;99.70;;;;;;6144403;23;20029;-84
2020/12/11 07:58:26;;;;;;;28.58;16.15;;;1.20;99.90;;;;;;6166302;23;20009;-86
2020/12/11 08:01:01;;;;;;;28.30;14.50;;;1.20;99.50;;;;;;6161591;23;20012;-86
2020/12/11 08:03:27;;;;;;;26.58;13.27;;;1.20;99.60;;;;;;6169483;23;20001;-87
2020/12/11 08:05:53;;;;;;;28.05;12.70;;;1.20;99.70;;;;;;6165192;23;20006;-85
2020/12/11 08:08:26;;;;;;;31.50;16.23;;;1.30;99.70;;;;;;6137077;23;20010;-85
2020/12/11 08:10:51;;;;;;;27.48;13.15;;;1.20;99.10;;;;;;6164413;23;20330;-85
2020/12/11 08:13:21;;;;;;;26.33;13.73;;;1.30;99.40;;;;;;6163216;23;20017;-85
2020/12/11 08:15:47;;;;;;;27.80;14.88;;;1.30;99.50;;;;;;6166657;23;20061;-85
2020/12/11 08:18:20;;;;;;;33.63;16.33;;;1.40;99.10;;;;;;6140478;23;20033;-85
2020/12/11 08:20:59;;;;;;;25.02;13.48;;;1.30;98.90;;;;;;6166777;23;20080;-85
2020/12/11 08:23:26;;;;;;;25.58;12.55;;;1.30;99.40;;;;;;6164303;23;20005;-87
2020/12/11 08:26:10;;;;;;;25.13;14.50;;;1.40;99.30;;;;;;6163842;23;20080;-86
2020/12/11 08:28:36;;;;;;;28.42;14.63;;;1.40;98.70;;;;;;6181847;23;20012;-82
2020/12/11 08:31:14;;;;;;;25.75;14.07;;;1.30;98.90;;;;;;6169957;23;20009;-87
2020/12/11 08:33:40;;;;;;;25.08;13.30;;;1.30;98.70;;;;;;6162532;23;19998;-86
2020/12/11 08:36:17;;;;;;;28.17;15.43;;;1.30;99.10;;;;;;6162851;23;19998;-87
2020/12/11 08:38:43;;;;;;;21.50;11.18;;;1.30;99.20;;;;;;6163267;23;20491;-86
2020/12/11 08:41:15;;;;;;;19.30;10.68;;;1.30;99.30;;;;;;6162842;23;20008;-87
2020/12/11 08:43:44;;;;;;;29.45;14.07;;;1.40;99.30;;;;;;6163406;23;20009;-87
2020/12/11 08:46:18;;;;;;;45.92;20.80;;;1.50;99.10;;;;;;6164384;23;20077;-84
2020/12/11 08:51:28;;;;;;;23.65;11.43;;;1.70;99.00;;;;;;6173254;23;20031;-87
2020/12/11 08:53:56;;;;;;;18.95;9.90;;;1.80;98.90;;;;;;6162466;23;19997;-85
2020/12/11 08:56:21;;;;;;;20.20;12.18;;;1.90;98.60;;;;;;6162903;23;20426;-87
2020/12/11 08:58:47;;;;;;;25.17;12.60;;;2.00;97.90;;;;;;6163945;23;20025;-87
2020/12/11 09:01:12;;;;;;;26.33;13.52;;;2.00;97.60;;;;;;6164185;23;20009;-87
2020/12/11 09:08:49;;;;;;;21.77;11.20;;;2.10;96.90;;;;;;6184343;23;20080;-84
2020/12/11 09:11:15;;;;;;;21.20;11.75;;;2.10;96.80;;;;;;6159280;23;20005;-84
2020/12/11 09:13:41;;;;;;;22.35;11.90;;;2.00;96.50;;;;;;6159592;23;20080;-84
2020/12/11 09:16:07;;;;;;;20.02;12.32;;;2.00;97.50;;;;;;6133064;23;20008;-83
2020/12/11 09:18:32;;;;;;;20.27;10.05;;;2.10;97.10;;;;;;6158599;23;20030;-84
2020/12/11 09:20:58;;;;;;;15.13;8.20;;;2.20;97.30;;;;;;6159816;23;20326;-82
2020/12/11 09:23:23;;;;;;;19.63;10.93;;;2.30;97.00;;;;;;6159936;23;20319;-83
2020/12/11 09:25:49;;;;;;;17.73;10.00;;;2.40;96.30;;;;;;6159123;23;20117;-84
2020/12/11 09:28:19;;;;;;;16.08;9.35;;;2.40;96.10;;;;;;6133173;23;20048;-83
2020/12/11 09:30:46;;;;;;;15.90;8.30;;;2.50;96.50;;;;;;6132942;23;20005;-85
2020/12/11 09:33:21;;;;;;;15.35;9.23;;;2.60;95.80;;;;;;6134057;23;20008;-85
2020/12/11 09:35:47;;;;;;;16.75;9.85;;;2.60;95.50;;;;;;6134032;23;20025;-85
2020/12/11 09:38:13;;;;;;;15.90;9.25;;;2.70;95.30;;;;;;6135102;23;20012;-84
2020/12/11 09:40:59;;;;;;;16.85;9.45;;;2.80;95.40;;;;;;6133207;23;20068;-84
2020/12/11 09:51:18;;;;;;;17.13;10.27;;;2.90;93.50;;;;;;6160445;23;20080;-84
2020/12/11 09:56:23;;;;;;;13.82;7.78;;;2.90;93.60;;;;;;6169128;23;20006;-83
2020/12/11 09:58:50;;;;;;;18.42;10.45;;;3.00;94.20;;;;;;6133601;23;20145;-83
2020/12/11 10:01:21;;;;;;;20.90;11.35;;;3.00;93.40;;;;;;6132801;23;20013;-82
2020/12/11 10:03:46;;;;;;;16.38;9.60;;;3.00;93.50;;;;;;6132970;23;20124;-81
2020/12/11 10:06:12;;;;;;;18.60;10.77;;;3.10;93.40;;;;;;6158845;23;20008;-81
2020/12/11 10:08:38;;;;;;;18.33;10.85;;;3.10;92.90;;;;;;6157667;23;20466;-81
2020/12/11 10:11:03;;;;;;;17.15;10.13;;;3.10;93.10;;;;;;6157395;23;20051;-81
2020/12/11 10:13:29;;;;;;;16.50;9.75;;;3.10;93.00;;;;;;6131005;23;20329;-80
2020/12/11 10:15:55;;;;;;;16.60;9.63;;;3.20;93.00;;;;;;6131246;23;20001;-81
2020/12/11 10:18:21;;;;;;;16.77;8.63;;;3.10;92.20;;;;;;6161355;23;20016;-80
2020/12/11 10:20:46;;;;;;;18.92;9.90;;;3.10;92.10;;;;;;6132104;23;20030;-81
2020/12/11 10:23:12;;;;;;;18.15;10.00;;;3.10;92.30;;;;;;6158018;23;20002;-82
2020/12/11 10:25:37;;;;;;;11.90;7.28;;;3.20;92.40;;;;;;6143362;23;20052;-82
2020/12/11 10:28:04;;;;;;;16.10;8.05;;;3.30;92.90;;;;;;6138559;23;20094;-83
2020/12/11 10:30:32;;;;;;;15.20;9.18;;;3.40;92.40;;;;;;6162858;23;20056;-82
2020/12/11 10:32:57;;;;;;;14.73;8.65;;;3.40;91.60;;;;;;6157857;23;19998;-82
2020/12/11 10:35:23;;;;;;;13.88;8.77;;;3.50;91.80;;;;;;6131901;23;20002;-82
2020/12/11 10:37:48;;;;;;;13.57;7.53;;;3.60;91.30;;;;;;6157996;23;20028;-83
2020/12/11 10:40:14;;;;;;;12.32;8.25;;;3.60;91.20;;;;;;6158271;23;20024;-82
2020/12/11 10:42:40;;;;;;;15.18;7.82;;;3.60;90.50;;;;;;6131419;23;20005;-83
2020/12/11 10:45:05;;;;;;;13.50;8.38;;;3.50;90.70;;;;;;6160212;23;20013;-84
2020/12/11 10:47:31;;;;;;;13.25;7.88;;;3.60;90.70;;;;;;6136026;23;20001;-84
2020/12/11 10:49:59;;;;;;;13.48;7.80;;;3.70;90.70;;;;;;6141672;23;20001;-84
2020/12/11 10:52:25;;;;;;;11.98;7.22;;;3.80;90.80;;;;;;6151287;23;20032;-83
2020/12/11 10:54:53;;;;;;;12.18;7.85;;;3.90;90.20;;;;;;6153904;23;19997;-84
2020/12/11 10:57:19;;;;;;;15.25;8.80;;;4.00;89.70;;;;;;6179382;23;20013;-83
2020/12/11 10:59:45;;;;;;;13.10;8.20;;;3.90;88.30;;;;;;6178221;23;20024;-85
2020/12/11 11:02:11;;;;;;;14.32;8.48;;;3.80;89.00;;;;;;6149550;23;20037;-84
2020/12/11 11:04:36;;;;;;;18.85;9.50;;;3.70;89.20;;;;;;6163052;23;20052;-84
2020/12/11 11:07:10;;;;;;;12.63;7.90;;;3.70;90.10;;;;;;6154465;23;20041;-87
2020/12/11 11:12:19;;;;;;;13.57;8.48;;;3.70;88.90;;;;;;6159969;23;20009;-85
2020/12/11 11:28:12;;;;;;;16.85;9.23;;;3.40;90.30;;;;;;6158097;23;20084;-85
2020/12/11 11:30:39;;;;;;;12.05;8.13;;;3.50;90.40;;;;;;6131879;23;19997;-83
2020/12/11 11:33:05;;;;;;;16.48;9.02;;;3.50;90.90;;;;;;6131095;23;20434;-83
2020/12/11 11:35:30;;;;;;;20.45;10.02;;;3.60;90.60;;;;;;6157481;23;20052;-85
2020/12/11 11:37:57;;;;;;;18.05;10.35;;;3.60;90.50;;;;;;6157846;23;20001;-85
2020/12/11 11:40:24;;;;;;;12.85;7.22;;;3.60;90.80;;;;;;6158277;23;20010;-85
2020/12/11 11:42:52;;;;;;;17.63;9.52;;;3.70;90.90;;;;;;6132577;23;20037;-83
2020/12/11 11:45:21;;;;;;;14.68;8.90;;;3.80;90.30;;;;;;6158453;23;20441;-84
2020/12/11 11:47:49;;;;;;;11.00;6.85;;;3.70;90.50;;;;;;6132604;23;20009;-85
2020/12/11 11:55:24;;;;;;;12.85;7.70;;;4.10;89.80;;;;;;6162578;23;19989;-83
2020/12/11 11:57:50;;;;;;;9.77;6.57;;;4.20;89.60;;;;;;6132131;23;20497;-86
2020/12/11 12:00:16;;;;;;;13.68;9.15;;;4.20;89.80;;;;;;6133612;23;20009;-84
2020/12/11 12:02:42;;;;;;;16.35;9.20;;;4.30;89.10;;;;;;6167168;23;20001;-84
2020/12/11 12:05:09;;;;;;;17.48;9.57;;;4.40;88.50;;;;;;6133986;23;20009;-85
2020/12/11 12:07:36;;;;;;;15.63;8.55;;;4.50;87.10;;;;;;6161338;23;20016;-85
2020/12/11 12:10:09;;;;;;;12.10;7.28;;;4.50;87.20;;;;;;6126595;23;20010;-83
2020/12/11 12:12:42;;;;;;;16.20;8.65;;;4.60;87.80;;;;;;6144230;23;20008;-87
2020/12/11 12:15:10;;;;;;;16.63;10.02;;;4.60;86.70;;;;;;6139093;23;20081;-86
2020/12/11 12:17:41;;;;;;;17.20;10.38;;;4.70;85.80;;;;;;6137567;23;20015;-83
2020/12/11 12:20:11;;;;;;;17.45;9.32;;;4.60;83.50;;;;;;6164020;23;20064;-84
2020/12/11 12:23:33;;;;;;;19.38;10.15;;;4.50;85.90;;;;;;6160868;23;20013;-84
2020/12/11 12:31:17;;;;;;;10.57;6.18;;;4.60;86.10;;;;;;6170696;23;20029;-84
2020/12/11 12:34:49;;;;;;;15.27;8.88;;;;;;;;;;6142842;23;20009;-82
2020/12/11 12:44:30;;;;;;;15.10;9.43;;;6.50;76.40;;;;;;6129748;23;20381;-83
2020/12/11 12:46:56;;;;;;;11.52;7.20;;;6.60;74.10;;;;;;6153198;23;20021;-84
2020/12/11 12:49:22;;;;;;;13.85;9.38;;;6.60;75.30;;;;;;6133116;23;20008;-86
2020/12/11 12:51:48;;;;;;;15.48;9.00;;;6.20;74.30;;;;;;6160165;23;19997;-83
2020/12/11 12:54:13;;;;;;;11.05;7.68;;;5.90;76.10;;;;;;6157564;23;20117;-84
2020/12/11 13:01:58;;;;;;;14.55;8.98;;;4.60;81.00;;;;;;6168439;23;20020;-85
2020/12/11 13:04:39;;;;;;;18.75;11.73;;;4.40;82.40;;;;;;6158509;23;20057;-84
2020/12/11 13:07:06;;;;;;;16.73;9.57;;;4.10;83.50;;;;;;6132631;23;20082;-84
2020/12/11 13:09:32;;;;;;;14.50;7.80;;;3.60;85.50;;;;;;6134100;23;20089;-82
2020/12/11 13:11:58;;;;;;;11.57;7.85;;;3.50;87.50;;;;;;6162978;23;20080;-84
2020/12/11 13:14:24;;;;;;;14.63;7.90;;;3.30;88.60;;;;;;6157489;23;20004;-85
2020/12/11 13:16:50;;;;;;;14.23;8.35;;;3.20;89.80;;;;;;6132112;23;20280;-84
2020/12/11 13:19:17;;;;;;;14.93;9.65;;;3.10;90.40;;;;;;6131556;23;20002;-85
2020/12/11 13:27:29;;;;;;;16.13;9.45;;;2.80;91.90;;;;;;6157982;23;20109;-83
2020/12/11 13:29:58;;;;;;;18.35;10.63;;;2.80;92.50;;;;;;6158624;23;20088;-84
2020/12/11 13:32:27;;;;;;;17.50;10.35;;;2.90;92.60;;;;;;6131271;23;20052;-82
2020/12/11 13:34:53;;;;;;;19.17;10.13;;;2.80;92.90;;;;;;6157246;23;20001;-85
2020/12/11 13:37:19;;;;;;;18.83;9.20;;;2.70;93.00;;;;;;6173366;23;20068;-84
2020/12/11 13:39:45;;;;;;;18.33;10.82;;;2.70;93.30;;;;;;6144694;23;20020;-82
2020/12/11 13:42:11;;;;;;;16.50;8.65;;;2.70;93.30;;;;;;6170139;23;20001;-83
2020/12/11 13:44:37;;;;;;;17.17;9.13;;;2.70;93.70;;;;;;6139245;23;20013;-83
2020/12/11 13:47:04;;;;;;;15.65;9.00;;;2.80;93.60;;;;;;6132195;23;20520;-82
2020/12/11 13:49:31;;;;;;;12.48;7.53;;;2.90;93.50;;;;;;6158802;23;19998;-83
2020/12/11 13:51:57;;;;;;;17.35;10.27;;;2.90;93.40;;;;;;6132478;23;20001;-84
2020/12/11 13:54:22;;;;;;;17.52;10.52;;;2.90;93.10;;;;;;6157981;23;20013;-84
2020/12/11 13:56:49;;;;;;;14.38;8.00;;;2.90;92.90;;;;;;6139077;23;20005;-81
2020/12/11 13:59:14;;;;;;;13.82;8.85;;;2.90;93.10;;;;;;6138768;23;20032;-84
2020/12/11 14:01:44;;;;;;;13.77;8.65;;;2.80;93.00;;;;;;6158124;23;20012;-85
2020/12/11 14:04:09;;;;;;;19.60;10.85;;;2.80;93.20;;;;;;6157914;23;20060;-84
2020/12/11 14:06:35;;;;;;;15.10;9.88;;;2.70;93.10;;;;;;6132965;23;20013;-83
2020/12/11 14:09:01;;;;;;;18.00;8.95;;;2.60;93.60;;;;;;6159383;23;20005;-83
2020/12/11 14:11:28;;;;;;;12.60;7.57;;;2.60;94.00;;;;;;6166864;23;19985;-85
2020/12/11 14:13:54;;;;;;;12.88;6.72;;;2.60;94.10;;;;;;6179189;23;20013;-84